createdAt,value
2018-07-09T00:00:12.866Z,2.17
2018-07-09T00:05:06.216Z,2.22
2018-07-09T00:10:00.030Z,2.10
2018-07-09T00:14:53.284Z,2.37
2018-07-09T00:19:46.652Z,2.40
2018-07-09T00:24:39.897Z,2.35
2018-07-09T00:29:33.173Z,2.97
2018-07-09T00:34:26.549Z,2.42
2018-07-09T00:39:19.814Z,2.77
2018-07-09T00:44:13.109Z,2.83
2018-07-09T00:49:06.320Z,2.70
2018-07-09T00:53:59.442Z,2.40
2018-07-09T00:58:52.691Z,2.40
2018-07-09T01:03:45.949Z,2.53
2018-07-09T01:08:39.192Z,2.52
2018-07-09T01:13:44.378Z,2.23
2018-07-09T01:18:37.618Z,2.50
2018-07-09T01:23:31.130Z,2.50
2018-07-09T01:28:24.485Z,2.33
2018-07-09T01:33:17.691Z,2.37
2018-07-09T01:38:10.966Z,2.40
2018-07-09T01:43:04.231Z,2.80
2018-07-09T01:47:57.413Z,2.60
2018-07-09T01:52:50.629Z,2.80
2018-07-09T01:57:43.839Z,2.98
2018-07-09T02:02:36.980Z,3.23
2018-07-09T02:07:30.225Z,2.83
2018-07-09T02:12:23.479Z,2.90
2018-07-09T02:17:16.731Z,2.95
2018-07-09T02:22:10.015Z,2.77
2018-07-09T02:27:03.334Z,2.70
2018-07-09T02:31:56.610Z,2.57
2018-07-09T02:36:49.835Z,3.00
2018-07-09T02:41:43.087Z,2.60
2018-07-09T02:46:36.322Z,2.90
2018-07-09T02:51:29.566Z,2.90
2018-07-09T02:56:22.789Z,3.20
2018-07-09T03:01:16.136Z,3.42
2018-07-09T03:06:09.232Z,2.90
2018-07-09T03:11:02.811Z,3.12
2018-07-09T03:15:55.976Z,3.23
2018-07-09T03:20:49.234Z,3.30
2018-07-09T03:25:42.479Z,3.30
2018-07-09T03:30:35.686Z,2.63
2018-07-09T03:35:28.988Z,3.17
2018-07-09T03:40:22.229Z,3.23
2018-07-09T03:45:15.468Z,2.90
2018-07-09T03:50:08.614Z,3.07
2018-07-09T03:55:01.876Z,3.00
2018-07-09T03:59:55.131Z,3.37
2018-07-09T04:04:48.372Z,3.08
2018-07-09T04:09:41.491Z,3.07
2018-07-09T04:14:34.740Z,3.03
2018-07-09T04:19:27.955Z,3.60
2018-07-09T04:24:21.152Z,3.80
2018-07-09T04:29:14.358Z,3.87
2018-07-09T04:34:07.956Z,4.62
2018-07-09T04:39:01.401Z,4.20
2018-07-09T04:43:54.520Z,4.50
2018-07-09T04:48:48.289Z,4.80
2018-07-09T04:53:41.477Z,4.43
2018-07-09T04:58:34.722Z,3.58
2018-07-09T05:03:27.952Z,3.37
2018-07-09T05:08:21.184Z,3.30
2018-07-09T05:13:14.438Z,3.67
2018-07-09T05:18:07.667Z,2.72
2018-07-09T05:23:00.889Z,3.20
2018-07-09T05:27:54.112Z,2.35
2018-07-09T05:32:47.371Z,3.13
2018-07-09T05:37:40.616Z,2.75
2018-07-09T05:42:34.349Z,2.77
2018-07-09T05:47:27.665Z,2.40
2018-07-09T05:52:20.835Z,2.47
2018-07-09T05:57:13.970Z,2.00
2018-07-09T06:02:07.307Z,2.40
2018-07-09T06:07:00.553Z,2.17
2018-07-09T06:11:53.726Z,2.08
2018-07-09T06:16:46.843Z,2.00
2018-07-09T06:21:40.046Z,2.03
2018-07-09T06:26:34.296Z,1.83
2018-07-09T06:31:27.611Z,1.87
2018-07-09T06:36:20.970Z,1.93
2018-07-09T06:41:14.263Z,1.60
2018-07-09T06:46:07.620Z,2.10
2018-07-09T06:51:00.982Z,1.77
2018-07-09T06:55:54.228Z,1.50
2018-07-09T07:00:47.468Z,2.00
2018-07-09T07:05:40.851Z,1.70
2018-07-09T07:10:34.167Z,1.50
2018-07-09T07:15:27.402Z,1.75
2018-07-09T07:20:20.690Z,1.53
2018-07-09T07:25:14.012Z,1.95
2018-07-09T07:30:07.321Z,1.97
2018-07-09T07:35:00.565Z,1.72
2018-07-09T07:39:53.802Z,1.67
2018-07-09T07:44:47.114Z,1.67
2018-07-09T07:49:40.308Z,1.70
2018-07-09T07:54:33.576Z,1.40
2018-07-09T07:59:26.816Z,1.50
2018-07-09T08:04:20.101Z,1.47
2018-07-09T08:09:13.482Z,1.40
2018-07-09T08:14:06.601Z,1.45
2018-07-09T08:18:59.886Z,1.50
2018-07-09T08:23:53.149Z,1.30
2018-07-09T08:28:46.416Z,2.20
2018-07-09T08:33:39.724Z,1.67
2018-07-09T08:38:32.885Z,1.70
2018-07-09T08:43:26.232Z,1.70
2018-07-09T08:48:19.536Z,1.70
2018-07-09T08:53:12.807Z,1.80
2018-07-09T08:58:06.185Z,1.70
2018-07-09T09:02:59.425Z,1.80
2018-07-09T09:07:52.665Z,2.17
2018-07-09T09:12:45.932Z,2.00
2018-07-09T09:17:39.148Z,1.30
2018-07-09T09:22:32.405Z,1.90
2018-07-09T09:27:25.723Z,2.02
2018-07-09T09:32:18.992Z,2.20
2018-07-09T09:37:12.273Z,1.80
2018-07-09T09:42:06.094Z,2.20
2018-07-09T09:46:59.376Z,2.30
2018-07-09T09:51:52.606Z,2.60
2018-07-09T09:56:45.869Z,2.00
2018-07-09T10:01:39.127Z,2.00
2018-07-09T10:06:32.442Z,2.00
2018-07-09T10:11:25.729Z,2.20
2018-07-09T10:16:19.083Z,1.87
2018-07-09T10:21:12.444Z,1.80
2018-07-09T10:26:05.825Z,2.00
2018-07-09T10:30:59.024Z,2.40
2018-07-09T10:35:52.287Z,2.77
2018-07-09T10:40:46.068Z,2.60
2018-07-09T10:45:39.312Z,2.60
2018-07-09T10:50:32.883Z,2.58
2018-07-09T10:55:26.242Z,2.70
2018-07-09T11:00:19.533Z,3.30
2018-07-09T11:05:12.788Z,3.00
2018-07-09T11:10:05.927Z,2.10
2018-07-09T11:14:59.215Z,3.00
2018-07-09T11:19:52.475Z,2.73
2018-07-09T11:24:45.728Z,2.62
2018-07-09T11:29:38.985Z,2.10
2018-07-09T11:34:32.239Z,2.42
2018-07-09T11:39:25.387Z,2.10
2018-07-09T11:44:18.656Z,2.58
2018-07-09T11:49:12.200Z,2.87
2018-07-09T11:54:05.652Z,2.30
2018-07-09T11:58:58.898Z,3.00
2018-07-09T12:03:52.627Z,2.40
2018-07-09T12:08:46.065Z,2.30
2018-07-09T12:13:39.357Z,2.13
2018-07-09T12:18:32.852Z,2.17
2018-07-09T12:23:26.075Z,1.83
2018-07-09T12:28:19.343Z,1.75
2018-07-09T12:33:12.558Z,2.20
2018-07-09T12:38:05.950Z,3.10
2018-07-09T12:42:59.092Z,2.53
2018-07-09T12:47:52.329Z,2.77
2018-07-09T12:52:45.547Z,2.47
2018-07-09T12:57:38.824Z,2.60
2018-07-09T13:02:32.150Z,3.30
2018-07-09T13:07:25.993Z,3.55
2018-07-09T13:12:24.822Z,3.70
2018-07-09T13:17:18.103Z,3.40
2018-07-09T13:22:11.436Z,3.77
2018-07-09T13:27:04.701Z,3.90
2018-07-09T13:31:58.537Z,3.77
2018-07-09T13:36:52.531Z,3.57
2018-07-09T13:41:45.879Z,4.63
2018-07-09T13:46:39.053Z,3.10
2018-07-09T13:51:32.422Z,3.00
2018-07-09T13:56:25.645Z,3.15
2018-07-09T14:01:18.919Z,2.40
2018-07-09T14:06:12.289Z,1.95
2018-07-09T14:11:05.536Z,2.67
2018-07-09T14:15:58.729Z,3.33
2018-07-09T14:20:51.957Z,2.60
2018-07-09T14:25:45.210Z,2.37
2018-07-09T14:30:38.585Z,1.90
2018-07-09T14:35:31.848Z,1.98
2018-07-09T14:40:25.307Z,2.00
2018-07-09T14:45:18.819Z,2.17
2018-07-09T14:50:12.185Z,2.57
2018-07-09T14:55:05.665Z,2.23
2018-07-09T14:59:58.924Z,3.30
2018-07-09T15:04:52.491Z,3.50
2018-07-09T15:09:45.648Z,3.50
2018-07-09T15:14:38.993Z,3.50
2018-07-09T15:19:32.209Z,4.10
2018-07-09T15:24:25.363Z,2.83
2018-07-09T15:29:18.749Z,3.30
2018-07-09T15:34:12.453Z,5.37
2018-07-09T15:39:05.611Z,3.47
2018-07-09T15:44:01.792Z,3.27
2018-07-09T15:48:55.035Z,3.20
2018-07-09T15:53:48.212Z,3.55
2018-07-09T15:58:41.373Z,3.07
2018-07-09T16:03:34.697Z,3.07
2018-07-09T16:08:27.952Z,3.20
2018-07-09T16:13:21.272Z,2.77
2018-07-09T16:18:14.607Z,2.70
2018-07-09T16:23:07.913Z,2.23
2018-07-09T16:28:01.161Z,2.60
2018-07-09T16:32:54.414Z,2.00
2018-07-09T16:37:48.425Z,1.82
2018-07-09T16:42:41.709Z,1.30
2018-07-09T16:47:34.968Z,1.80
2018-07-09T16:52:28.213Z,3.37
2018-07-09T16:57:22.303Z,1.70
2018-07-09T17:02:15.631Z,1.60
2018-07-09T17:07:09.560Z,1.97
2018-07-09T17:12:02.807Z,1.80
2018-07-09T17:16:56.059Z,1.80
2018-07-09T17:21:49.350Z,2.23
2018-07-09T17:26:42.918Z,2.35
2018-07-09T17:31:36.081Z,2.43
2018-07-09T17:36:29.339Z,2.10
2018-07-09T17:41:22.536Z,2.30
2018-07-09T17:46:15.812Z,2.02
2018-07-09T17:51:09.055Z,2.10
2018-07-09T17:56:02.215Z,2.70
2018-07-09T18:00:55.476Z,2.57
2018-07-09T18:05:48.746Z,1.80
2018-07-09T18:10:41.978Z,2.03
2018-07-09T18:15:35.283Z,1.80
2018-07-09T18:20:28.492Z,1.90
2018-07-09T18:25:21.777Z,1.85
2018-07-09T18:30:15.035Z,2.00
2018-07-09T18:35:08.355Z,1.80
2018-07-09T18:40:01.577Z,2.03
2018-07-09T18:44:54.833Z,3.00
2018-07-09T18:49:48.074Z,1.77
2018-07-09T18:54:41.301Z,1.60
2018-07-09T18:59:34.531Z,2.20
2018-07-09T19:04:28.420Z,1.62
2018-07-09T19:09:22.516Z,2.03
2018-07-09T19:14:18.504Z,2.80
2018-07-09T19:19:28.891Z,2.60
2018-07-09T19:24:20.453Z,2.30
2018-07-09T19:29:12.038Z,2.40
2018-07-09T19:34:03.667Z,2.47
2018-07-09T19:38:55.210Z,2.70
2018-07-09T19:43:46.803Z,2.30
2018-07-09T19:48:38.382Z,2.43
2018-07-09T19:53:30.004Z,2.00
2018-07-09T19:58:21.570Z,2.20
2018-07-09T20:03:13.139Z,2.40
2018-07-09T20:08:05.468Z,2.10
2018-07-09T20:13:03.611Z,2.63
2018-07-09T20:17:55.209Z,2.10
2018-07-09T20:22:46.800Z,2.43
2018-07-09T20:27:38.387Z,2.57
2018-07-09T20:32:29.967Z,3.07
2018-07-09T20:37:21.856Z,3.00
2018-07-09T20:42:13.446Z,3.23
2018-07-09T20:47:05.030Z,3.30
2018-07-09T20:51:56.619Z,3.70
2018-07-09T20:56:48.177Z,6.53
2018-07-09T21:01:39.745Z,3.83
2018-07-09T21:06:31.323Z,4.20
2018-07-09T21:11:22.962Z,3.70
2018-07-09T21:16:14.578Z,3.63
2018-07-09T21:21:06.737Z,3.53
2018-07-09T21:25:58.426Z,3.50
2018-07-09T21:30:50.007Z,4.07
2018-07-09T21:35:41.611Z,4.47
2018-07-09T21:40:33.169Z,4.43
2018-07-09T21:45:24.734Z,4.57
2018-07-09T21:50:16.309Z,3.83
2018-07-09T21:55:07.909Z,3.60
2018-07-09T22:00:00.468Z,3.10
2018-07-09T22:04:52.051Z,3.47
2018-07-09T22:09:43.689Z,3.20
2018-07-09T22:14:35.264Z,2.93
2018-07-09T22:19:26.910Z,2.60
2018-07-09T22:24:18.581Z,2.90
2018-07-09T22:29:10.629Z,2.63
2018-07-09T22:34:03.859Z,2.27
2018-07-09T22:38:57.079Z,2.00
2018-07-09T22:44:07.440Z,2.10
2018-07-09T22:49:00.573Z,2.43
2018-07-09T22:53:53.783Z,1.80
2018-07-09T22:58:46.926Z,1.83
2018-07-09T23:03:40.174Z,1.57
2018-07-09T23:08:33.465Z,1.27
2018-07-09T23:15:41.575Z,1.17
2018-07-09T23:21:53.950Z,1.10
2018-07-09T23:26:45.517Z,1.37
2018-07-09T23:31:37.153Z,1.47
2018-07-09T23:36:28.736Z,1.47
2018-07-09T23:41:20.313Z,1.60
2018-07-09T23:46:12.352Z,1.70
2018-07-09T23:51:03.967Z,1.60
2018-07-09T23:57:22.345Z,1.40
